MST,Max TemperatureF,Mean TemperatureF,Min TemperatureF,Max Dew PointF,MeanDew PointF,Min DewpointF,Max Humidity, Mean Humidity, Min Humidity, Max Sea Level PressureIn, Mean Sea Level PressureIn, Min Sea Level PressureIn, Max VisibilityMiles, Mean VisibilityMiles, Min VisibilityMiles, Max Wind SpeedMPH, Mean Wind SpeedMPH, Max Gust SpeedMPH,PrecipitationIn, CloudCover, Events, WindDirDegrees
2013-2-1,40,30,19,31,28,16,100,77,54,30.49,30.28,30.19,10,7,2,9,2,12,T,6,Snow,306
2013-2-2,33,21,9,23,13,6,92,78,63,30.58,30.45,30.29,10,7,0,6,1,7,0.01,1,Fog,148
2013-2-3,31,22,13,25,19,10,92,83,73,30.45,30.26,30.13,10,6,0,8,2,9,0.00,5,Fog,144
2013-2-4,38,29,19,29,23,18,96,83,69,30.26,30.17,30.08,10,8,1,8,1,10,T,7,,323
2013-2-5,41,33,24,27,25,22,92,73,54,30.04,29.96,29.88,10,10,10,12,2,14,0.01,3,,196
2013-2-6,36,26,15,25,18,12,100,76,51,30.19,30.10,29.95,10,9,2,7,2,8,T,3,,127
2013-2-7,35,25,15,22,18,12,92,74,56,30.13,30.00,29.93,10,10,9,8,2,10,0.00,5,,358
2013-2-8,33,24,14,19,16,13,92,73,54,29.99,29.96,29.87,10,10,9,18,9,28,0.00,1,,342
2013-2-9,31,26,20,20,16,10,75,64,53,30.05,29.96,29.87,10,10,7,23,11,29,T,4,Snow,344
2013-2-10,33,22,11,16,12,8,81,60,38,30.22,30.15,30.07,10,10,10,17,7,22,0.00,1,,334
2013-2-11,36,19,2,19,10,-2,92,70,47,30.32,30.27,30.20,10,10,9,12,2,15,0.00,0,,308
2013-2-12,34,24,14,25,18,11,88,75,61,30.41,30.34,30.23,10,10,8,5,1,5,0.00,7,,169
2013-2-13,38,33,27,27,25,23,85,72,59,30.35,30.28,30.20,10,10,9,12,2,16,0.00,7,,292
2013-2-14,38,27,15,24,20,14,92,66,40,30.52,30.45,30.32,10,10,10,12,2,15,0.00,5,,265
2013-2-15,40,28,15,23,20,14,92,71,50,30.58,30.51,30.45,10,10,7,7,2,8,0.00,1,,153
2013-2-16,42,29,16,30,24,13,92,72,51,30.43,30.09,29.90,10,6,1,18,4,23,0.12,5,Rain-Snow,241
2013-2-17,32,21,9,25,18,6,96,80,63,30.19,30.03,29.92,10,8,0,9,2,12,T,4,Fog,335
2013-2-18,30,16,2,16,8,-1,92,71,50,30.20,30.07,29.86,10,10,10,7,1,9,0.00,2,,34
2013-2-19,30,21,12,27,19,8,92,80,67,29.85,29.67,29.60,10,4,0,10,1,14,0.18,7,Fog-Snow,346
2013-2-20,31,20,9,19,10,3,88,66,43,30.02,29.90,29.71,10,10,9,16,7,22,0.01,1,,342
2013-2-21,25,9,-7,20,13,-11,92,71,50,30.20,30.04,29.93,10,6,0,9,2,10,0.06,5,Fog-Snow,214
2013-2-22,30,23,16,27,23,15,92,87,81,30.14,29.92,29.68,10,4,1,16,4,20,0.28,8,Snow,144
2013-2-23,30,19,8,28,19,7,96,78,60,30.23,29.93,29.63,10,6,0,23,6,37,0.21,6,Fog-Snow,289
2013-2-24,29,18,6,18,13,3,92,74,55,30.38,30.25,30.10,10,6,0,7,1,7,0.01,5,Fog-Snow,157
2013-2-25,27,19,10,23,17,7,92,86,80,30.28,30.05,29.95,10,4,0,9,1,12,0.22,7,Fog-Snow,118
2013-2-26,29,16,2,17,7,-2,88,71,53,30.45,30.25,30.05,10,6,0,9,2,12,0.00,2,Fog,171
2013-2-27,33,19,4,15,11,2,96,73,49,30.52,30.45,30.41,10,10,7,6,1,7,0.01,3,,357
2013-2-28,33,25,17,31,25,14,100,89,77,30.51,30.35,30.27,10,2,0,6,0,7,0.32,8,Fog-Snow,21